Time;durP1;ratioP1;P1;durP2;ratioP2;P2;SDS_P1;SDS_P2;PMS_P1;PMS_P2;Temp;Humidity;BMP_temperature;BMP_pressure;BME280_temperature;BME280_humidity;BME280_pressure;Samples;Min_cycle;Max_cycle;Signal;HPM_P1;HPM_P2
2021/12/02 00:01:17;;;;;;;6.93;0.82;;;;;;;9.50;38.19;99934.91;4438730;32;20038;-69
2021/12/02 00:03:45;;;;;;;6.82;1.00;;;;;;;9.67;38.48;99936.34;4431734;32;20065;-69
2021/12/02 00:06:14;;;;;;;6.60;0.75;;;;;;;9.50;38.46;99940.53;4434735;32;20132;-69
2021/12/02 00:08:42;;;;;;;5.30;0.88;;;;;;;9.97;37.87;99943.38;4430321;32;20410;-69
2021/12/02 00:11:09;;;;;;;3.58;0.82;;;;;;;9.67;38.56;99933.53;4436344;32;20085;-69
2021/12/02 00:22:01;;;;;;;3.50;0.62;;;;;;;10.23;37.79;99932.87;4440478;32;20029;-68
2021/12/02 00:24:33;;;;;;;3.90;0.60;;;;;;;10.23;37.60;99930.06;4439560;32;20096;-68
2021/12/02 00:27:00;;;;;;;5.32;0.52;;;;;;;9.86;38.19;99923.28;4428546;32;20473;-68
2021/12/02 00:29:29;;;;;;;5.50;0.90;;;;;;;9.77;38.23;99932.41;4439159;32;20104;-68
2021/12/02 00:32:02;;;;;;;4.95;0.47;;;;;;;9.83;38.20;99916.56;4438466;32;20033;-68
2021/12/02 00:34:29;;;;;;;11.00;1.17;;;;;;;10.37;37.29;99918.31;4436854;32;20069;-68
2021/12/02 00:36:57;;;;;;;2.28;0.70;;;;;;;10.16;37.50;99907.81;4443380;32;20417;-68
2021/12/02 00:39:24;;;;;;;2.37;0.40;;;;;;;10.13;37.28;99936.84;4440846;32;20452;-68
2021/12/02 00:41:50;;;;;;;6.78;0.73;;;;;;;10.05;37.24;99902.53;4438718;32;20069;-68
2021/12/02 00:44:18;;;;;;;7.43;0.80;;;;;;;10.23;36.94;99904.75;4441009;32;20130;-68
2021/12/02 00:46:45;;;;;;;5.00;0.73;;;;;;;10.44;36.79;99906.78;4433263;32;20103;-68
2021/12/02 00:49:14;;;;;;;5.10;0.98;;;;;;;10.38;36.34;99914.25;4434557;32;20077;-68
2021/12/02 00:51:44;;;;;;;5.72;1.12;;;;;;;10.73;36.45;99910.09;4440971;32;20093;-68
2021/12/02 00:54:11;;;;;;;6.55;0.62;;;;;;;10.61;36.21;99916.63;4442702;32;20044;-68
2021/12/02 00:56:38;;;;;;;3.37;0.88;;;;;;;11.15;35.52;99917.72;4438060;32;20861;-69
2021/12/02 00:59:06;;;;;;;3.30;0.80;;;;;;;11.09;35.35;99904.69;4441811;32;20081;-68
2021/12/02 01:01:34;;;;;;;6.60;0.68;;;;;;;11.59;34.89;99907.84;4440299;32;20117;-68
2021/12/02 01:04:01;;;;;;;12.93;0.93;;;;;;;11.12;35.07;99915.03;4441015;32;20064;-68
2021/12/02 01:06:27;;;;;;;4.60;0.60;;;;;;;11.17;34.79;99917.25;4440366;32;20041;-68
2021/12/02 01:08:54;;;;;;;8.48;0.90;;;;;;;11.32;34.90;99930.28;4438668;32;20511;-68
2021/12/02 01:11:20;;;;;;;4.62;0.40;;;;;;;11.26;34.79;99932.13;4436319;32;20673;-68
2021/12/02 01:13:47;;;;;;;12.50;0.93;;;;;;;11.59;34.62;99933.22;4444272;32;20077;-69
2021/12/02 01:16:14;;;;;;;3.80;0.40;;;;;;;11.88;34.03;99930.03;4440550;32;20433;-68
2021/12/02 01:18:40;;;;;;;7.35;0.93;;;;;;;11.78;34.16;99934.88;4432524;32;20309;-68
2021/12/02 01:21:07;;;;;;;7.12;0.62;;;;;;;11.81;34.24;99935.94;4439090;32;20351;-69
2021/12/02 01:23:33;;;;;;;5.82;0.57;;;;;;;11.98;33.91;99935.22;4439812;32;20419;-68
2021/12/02 01:28:36;;;;;;;5.95;0.70;;;;;;;12.58;33.28;99937.44;3980489;32;15025458;-69
2021/12/02 01:31:03;;;;;;;3.15;0.62;;;;;;;12.58;33.28;99937.44;4437671;32;20059;-69
2021/12/02 01:33:29;;;;;;;4.12;0.60;;;;;;;12.20;33.36;99940.72;4438214;32;20111;-69
2021/12/02 01:35:59;;;;;;;4.15;0.70;;;;;;;12.49;33.20;99940.28;4434780;32;20082;-69
2021/12/02 01:38:25;;;;;;;8.20;0.60;;;;;;;12.01;33.34;99958.88;4433970;32;20093;-68
2021/12/02 01:40:52;;;;;;;6.07;0.50;;;;;;;11.99;33.79;99952.91;4437514;32;20085;-69
2021/12/02 01:43:20;;;;;;;4.35;0.77;;;;;;;11.75;34.25;99961.16;4436118;32;20251;-68
2021/12/02 01:45:46;;;;;;;8.68;0.60;;;;;;;12.18;33.69;99965.78;4435999;32;20398;-69
2021/12/02 01:48:22;;;;;;;2.53;0.30;;;;;;;12.13;33.38;99971.28;4435339;32;20480;-69
2021/12/02 01:51:00;;;;;;;3.95;1.15;;;;;;;12.06;33.42;99961.09;4438217;32;20041;-69
2021/12/02 01:53:40;;;;;;;7.60;0.80;;;;;;;12.23;33.38;99964.38;4435016;32;20071;-69
2021/12/02 01:56:10;;;;;;;4.25;0.52;;;;;;;12.04;33.37;99972.84;4438142;32;20067;-69
2021/12/02 01:58:42;;;;;;;4.62;0.70;;;;;;;11.82;33.58;99979.81;4433512;32;20435;-69
2021/12/02 02:01:14;;;;;;;2.20;0.40;;;;;;;12.15;33.48;99965.97;4436930;32;20103;-69
2021/12/02 02:03:41;;;;;;;4.80;0.65;;;;;;;11.88;33.27;99969.50;4435803;32;20072;-69
2021/12/02 02:06:09;;;;;;;2.12;0.35;;;;;;;12.24;33.02;99969.56;4438292;32;20092;-69
2021/12/02 02:08:44;;;;;;;4.20;0.50;;;;;;;11.94;33.18;99974.06;4432178;32;20119;-69
2021/12/02 02:11:11;;;;;;;4.68;0.47;;;;;;;12.49;32.28;99989.00;4435568;32;20077;-69
2021/12/02 02:13:37;;;;;;;7.53;0.82;;;;;;;12.18;32.91;99967.84;4437375;32;20093;-69
2021/12/02 02:16:03;;;;;;;7.50;0.45;;;;;;;12.18;32.89;99971.44;4432886;32;20524;-69
2021/12/02 02:18:30;;;;;;;1.60;0.57;;;;;;;12.05;33.21;99974.41;4432637;32;20045;-69
2021/12/02 02:23:41;;;;;;;7.32;0.62;;;;;;;12.53;32.39;99971.94;3985275;32;15024686;-69
2021/12/02 02:26:08;;;;;;;2.17;0.60;;;;;;;12.52;32.80;99981.66;4433862;32;20045;-69
2021/12/02 02:28:35;;;;;;;9.02;0.70;;;;;;;12.04;33.40;99972.84;4436346;32;20044;-69
2021/12/02 02:31:02;;;;;;;4.60;0.20;;;;;;;12.51;32.71;99980.88;4435574;32;20033;-69
2021/12/02 02:33:37;;;;;;;5.82;0.60;;;;;;;12.75;31.97;99970.53;4433419;32;20148;-69
2021/12/02 02:36:05;;;;;;;4.93;0.50;;;;;;;12.37;32.37;99960.97;4437200;32;20125;-69
2021/12/02 02:38:30;;;;;;;4.65;0.40;;;;;;;12.30;32.70;99970.50;4435621;32;20025;-69
2021/12/02 02:40:59;;;;;;;3.75;0.45;;;;;;;12.08;33.33;99972.66;4435533;32;20022;-69
2021/12/02 02:43:26;;;;;;;3.60;0.50;;;;;;;12.25;32.75;99964.72;4436508;32;20042;-69
2021/12/02 02:45:52;;;;;;;3.12;0.37;;;;;;;12.01;32.89;99954.03;4433953;32;20105;-69
2021/12/02 02:48:19;;;;;;;3.28;0.50;;;;;;;12.36;32.43;99957.34;4435323;32;20103;-69
2021/12/02 02:50:45;;;;;;;4.78;0.60;;;;;;;11.95;32.74;99970.00;4440069;32;20480;-70
2021/12/02 02:53:16;;;;;;;2.35;0.20;;;;;;;12.24;32.57;99952.63;4437043;32;20086;-69
2021/12/02 02:55:49;;;;;;;1.85;0.25;;;;;;;12.23;33.13;99945.44;4433912;32;20054;-69
2021/12/02 02:58:26;;;;;;;6.35;0.50;;;;;;;12.16;32.72;99945.75;4434349;32;20034;-69
2021/12/02 03:01:03;;;;;;;2.53;0.25;;;;;;;11.30;32.98;99924.34;4436035;32;20106;-69
2021/12/02 03:08:53;;;;;;;4.50;0.43;;;;;;;12.40;32.08;99932.59;3983977;32;15021956;-68
2021/12/02 03:11:19;;;;;;;1.12;0.20;;;;;;;12.42;32.11;99935.72;4433153;32;20055;-69
2021/12/02 03:13:51;;;;;;;5.35;0.40;;;;;;;12.38;31.94;99951.22;4437350;32;20069;-69
2021/12/02 03:16:50;;;;;;;2.60;0.45;;;;;;;11.80;32.70;99951.31;4433797;32;20161;-69
2021/12/02 03:19:05;;;;;;;12.43;0.50;;;;;;;12.38;32.39;99942.78;4438185;32;20029;-68
2021/12/02 03:21:31;;;;;;;2.62;0.30;;;;;;;12.19;32.15;99953.28;4435444;32;20102;-68
2021/12/02 03:24:00;;;;;;;6.40;0.50;;;;;;;12.39;32.32;99950.75;4436985;32;20025;-69
2021/12/02 03:26:28;;;;;;;6.25;0.77;;;;;;;12.17;32.55;99952.94;4436556;32;20100;-68
2021/12/02 03:28:54;;;;;;;2.40;0.47;;;;;;;12.18;32.65;99957.31;4435177;32;20122;-68
2021/12/02 03:31:22;;;;;;;3.95;0.65;;;;;;;12.37;32.58;99960.97;4432887;32;20422;-69
2021/12/02 03:33:48;;;;;;;2.15;0.30;;;;;;;12.10;32.80;99954.03;4435791;32;20041;-68
2021/12/02 03:36:16;;;;;;;4.20;0.45;;;;;;;11.87;32.89;99957.44;4439568;32;20045;-68
2021/12/02 03:38:43;;;;;;;2.65;0.43;;;;;;;12.00;33.14;99966.53;4436771;32;20077;-68
2021/12/02 03:41:08;;;;;;;4.32;0.35;;;;;;;11.95;33.29;99960.75;4437723;32;20061;-68
2021/12/02 03:46:13;;;;;;;9.05;0.50;;;;;;;12.48;33.09;99947.16;3982311;32;15024829;-69
2021/12/02 03:48:40;;;;;;;2.70;0.40;;;;;;;12.48;33.09;99947.16;4433940;32;20067;-69
2021/12/02 03:51:07;;;;;;;4.37;0.47;;;;;;;11.76;33.71;99956.31;4433283;32;20044;-69
2021/12/02 03:53:33;;;;;;;2.30;0.37;;;;;;;11.83;33.69;99967.28;4434492;32;20060;-69
2021/12/02 03:56:01;;;;;;;10.55;0.62;;;;;;;11.35;34.70;99965.97;4437282;32;20438;-69
2021/12/02 03:58:27;;;;;;;5.12;0.50;;;;;;;11.72;34.04;99964.16;4436045;32;20077;-69
2021/12/02 04:00:52;;;;;;;5.03;0.52;;;;;;;11.77;33.98;99957.88;4435532;32;20112;-69
2021/12/02 04:03:18;;;;;;;5.57;0.50;;;;;;;11.38;34.48;99953.00;4434279;32;20503;-69
2021/12/02 04:05:44;;;;;;;2.08;0.32;;;;;;;11.33;34.85;99959.25;4435251;32;20147;-70
2021/12/02 04:08:11;;;;;;;4.55;0.60;;;;;;;11.27;34.91;99963.91;4435590;32;20509;-70
2021/12/02 04:10:40;;;;;;;3.10;0.50;;;;;;;11.18;35.03;99975.94;4438976;32;20092;-70
2021/12/02 04:15:50;;;;;;;3.22;0.50;;;;;;;11.25;35.50;99983.31;3981584;32;15022429;-69
2021/12/02 04:18:17;;;;;;;8.88;0.60;;;;;;;11.25;35.50;99983.31;4431936;32;20079;-69
2021/12/02 04:20:43;;;;;;;6.07;0.82;;;;;;;10.86;35.90;99973.53;4433585;32;20029;-69
2021/12/02 04:23:08;;;;;;;4.40;0.52;;;;;;;10.82;36.21;99980.53;4435703;32;20046;-69
2021/12/02 04:25:34;;;;;;;11.38;0.90;;;;;;;10.74;36.34;99979.22;4433176;32;20088;-69
2021/12/02 04:28:00;;;;;;;4.07;0.50;;;;;;;10.93;36.05;99984.53;4431442;32;20061;-69
2021/12/02 04:30:27;;;;;;;4.22;0.40;;;;;;;10.91;36.09;99970.13;4432413;32;20064;-69
2021/12/02 04:32:54;;;;;;;3.58;0.68;;;;;;;10.30;37.26;99974.78;4435178;32;20104;-69
2021/12/02 04:35:21;;;;;;;6.68;0.45;;;;;;;10.43;36.92;99986.78;4431547;32;20407;-69
2021/12/02 04:37:51;;;;;;;1.92;0.40;;;;;;;10.84;36.70;99984.47;4433347;32;20064;-69
2021/12/02 04:40:20;;;;;;;4.47;0.40;;;;;;;10.82;36.58;99994.59;4432872;32;20034;-69
2021/12/02 04:42:46;;;;;;;2.03;0.17;;;;;;;10.54;37.09;99990.78;4435920;32;20079;-69
2021/12/02 04:45:12;;;;;;;1.12;0.30;;;;;;;10.29;37.72;99990.09;4431505;32;20521;-69
2021/12/02 04:47:39;;;;;;;3.67;0.40;;;;;;;10.76;36.71;100007.69;4431203;32;20110;-69
2021/12/02 04:50:06;;;;;;;5.45;0.65;;;;;;;10.07;37.85;100013.31;4430548;32;20064;-69
2021/12/02 04:52:32;;;;;;;2.33;0.30;;;;;;;10.47;37.35;100001.50;4431663;32;20037;-69
2021/12/02 04:54:58;;;;;;;2.58;0.55;;;;;;;10.18;37.72;99998.12;4432691;32;20034;-69
2021/12/02 04:57:24;;;;;;;6.15;0.47;;;;;;;9.97;37.44;99991.94;4434159;32;20168;-69
2021/12/02 04:59:50;;;;;;;3.12;0.32;;;;;;;10.19;37.08;99992.06;4432055;32;20042;-69
2021/12/02 05:02:15;;;;;;;3.67;0.32;;;;;;;10.39;36.98;99988.94;4429535;32;20033;-69
2021/12/02 05:04:41;;;;;;;2.33;0.40;;;;;;;10.17;37.49;100008.59;4430471;32;20034;-69
2021/12/02 05:07:07;;;;;;;5.70;0.40;;;;;;;10.04;37.66;100002.94;4432512;32;20041;-69
2021/12/02 05:09:33;;;;;;;2.80;0.25;;;;;;;9.93;38.07;100008.16;4432917;32;20063;-69
2021/12/02 05:11:58;;;;;;;4.78;0.55;;;;;;;10.08;37.61;99997.25;4434997;32;20054;-69
2021/12/02 05:14:24;;;;;;;4.80;0.40;;;;;;;9.75;37.59;99999.50;4432463;32;20038;-69
2021/12/02 05:16:50;;;;;;;1.45;0.40;;;;;;;9.83;37.41;99992.44;4435129;32;20041;-69
2021/12/02 05:19:15;;;;;;;5.93;0.20;;;;;;;10.29;36.39;99982.47;4430911;32;20724;-69
2021/12/02 05:21:41;;;;;;;3.05;0.32;;;;;;;9.37;37.39;99973.47;4431395;32;20022;-69
2021/12/02 05:24:07;;;;;;;0.65;0.20;;;;;;;10.06;36.76;99994.88;4432174;32;20666;-69
2021/12/02 05:26:34;;;;;;;2.87;0.30;;;;;;;10.17;36.38;99997.34;4426937;32;20014;-69
2021/12/02 05:29:01;;;;;;;2.35;0.20;;;;;;;10.22;36.41;100008.00;4421170;32;20054;-69
2021/12/02 05:31:27;;;;;;;3.03;0.43;;;;;;;10.15;36.33;100011.03;4421146;32;20483;-69
2021/12/02 05:33:53;;;;;;;8.05;0.40;;;;;;;9.95;37.09;100011.28;4423172;32;20128;-69
2021/12/02 05:36:19;;;;;;;1.90;0.30;;;;;;;9.82;37.17;100009.75;4422118;32;20482;-69
2021/12/02 05:38:45;;;;;;;3.47;0.40;;;;;;;9.91;37.12;99999.38;4423627;32;20090;-69
2021/12/02 05:41:14;;;;;;;2.37;0.32;;;;;;;9.75;37.31;100013.56;4417639;32;20069;-69
2021/12/02 05:43:40;;;;;;;2.58;0.50;;;;;;;9.76;37.55;100014.34;4422053;32;20496;-69
2021/12/02 05:46:06;;;;;;;3.55;0.40;;;;;;;9.49;37.69;100025.25;4422377;32;20065;-69
2021/12/02 05:48:32;;;;;;;3.33;0.43;;;;;;;9.49;37.27;100005.59;4417756;32;20062;-69
2021/12/02 05:50:58;;;;;;;2.95;0.65;;;;;;;9.74;37.27;100008.38;4422738;32;20097;-69
2021/12/02 05:53:24;;;;;;;4.70;0.52;;;;;;;9.79;36.92;100007.84;4420207;32;20042;-69
2021/12/02 05:55:50;;;;;;;6.20;0.30;;;;;;;9.58;37.19;100019.75;4419143;32;20380;-69
2021/12/02 05:58:15;;;;;;;6.57;0.60;;;;;;;9.52;36.93;100027.16;4421246;32;20114;-69
2021/12/02 06:00:42;;;;;;;2.47;0.40;;;;;;;8.90;38.23;100025.78;4420332;32;20026;-69
2021/12/02 06:03:08;;;;;;;3.50;0.90;;;;;;;9.13;37.97;100033.94;4418930;32;20130;-68
2021/12/02 06:05:34;;;;;;;3.60;0.37;;;;;;;9.48;37.00;100043.34;4421001;32;20125;-69
2021/12/02 06:08:03;;;;;;;2.15;0.15;;;;;;;9.28;37.45;100051.16;4419096;32;20412;-69
2021/12/02 06:10:30;;;;;;;1.42;0.20;;;;;;;9.56;37.13;100045.47;4421090;32;20038;-69
2021/12/02 06:12:57;;;;;;;2.97;0.20;;;;;;;9.78;36.88;100056.81;4421257;32;20079;-69
2021/12/02 06:15:23;;;;;;;10.07;0.60;;;;;;;9.11;37.76;100058.09;4420543;32;20436;-69
2021/12/02 06:17:49;;;;;;;4.15;0.45;;;;;;;8.98;38.17;100048.81;4418522;32;20043;-69
2021/12/02 06:20:18;;;;;;;5.37;0.82;;;;;;;9.36;37.52;100058.16;4420394;32;20038;-69
2021/12/02 06:22:45;;;;;;;3.20;0.45;;;;;;;9.37;37.28;100054.88;4424021;32;20119;-69
2021/12/02 06:27:52;;;;;;;3.05;0.28;;;;;;;9.89;36.54;100062.91;3980221;32;15026220;-68
2021/12/02 06:30:19;;;;;;;2.00;0.30;;;;;;;9.89;36.54;100062.91;4434194;32;20084;-68
2021/12/02 06:32:45;;;;;;;0.35;0.20;;;;;;;9.81;36.38;100081.22;4437268;32;20107;-68
2021/12/02 06:35:11;;;;;;;7.20;0.47;;;;;;;9.33;37.13;100078.69;4434572;32;20093;-69
2021/12/02 06:37:38;;;;;;;5.95;0.40;;;;;;;9.68;36.41;100088.84;4437977;32;20100;-69
2021/12/02 06:40:05;;;;;;;3.30;1.12;;;;;;;9.58;36.67;100093.53;4434921;32;20021;-69
2021/12/02 06:42:31;;;;;;;1.05;0.37;;;;;;;9.27;37.14;100091.72;4436837;32;20394;-69
2021/12/02 06:44:57;;;;;;;3.20;0.70;;;;;;;9.21;36.87;100094.25;4434441;32;20022;-69
2021/12/02 06:47:29;;;;;;;7.15;0.30;;;;;;;9.59;36.34;100099.97;4434842;32;20458;-69
2021/12/02 06:49:56;;;;;;;4.47;0.30;;;;;;;9.64;36.36;100100.19;4435229;32;20067;-69
2021/12/02 06:52:24;;;;;;;2.25;0.35;;;;;;;9.50;36.45;100099.81;4435917;32;20143;-69
2021/12/02 06:54:50;;;;;;;2.30;0.50;;;;;;;9.45;36.71;100098.34;4434583;32;20089;-69
2021/12/02 06:57:17;;;;;;;11.48;1.65;;;;;;;9.80;36.21;100091.69;4435185;32;20372;-69
2021/12/02 06:59:43;;;;;;;5.05;0.35;;;;;;;9.67;36.45;100099.28;4434647;32;20115;-69
2021/12/02 07:02:09;;;;;;;2.97;0.65;;;;;;;9.67;36.05;100093.66;4435633;32;20033;-69
2021/12/02 07:04:35;;;;;;;4.55;0.65;;;;;;;9.59;36.48;100097.16;4436708;32;20548;-70
2021/12/02 07:07:01;;;;;;;3.25;0.70;;;;;;;9.48;36.69;100099.50;4437320;32;20065;-69
2021/12/02 07:09:27;;;;;;;2.47;0.30;;;;;;;9.62;36.36;100093.44;4435490;32;20045;-69
2021/12/02 07:11:53;;;;;;;5.28;0.50;;;;;;;9.44;36.74;100094.00;4435880;32;20125;-69
2021/12/02 07:14:20;;;;;;;5.30;0.45;;;;;;;9.24;37.04;100089.78;4434602;32;20414;-69
2021/12/02 07:16:46;;;;;;;3.33;0.55;;;;;;;9.52;36.58;100095.38;4435822;32;20041;-69
2021/12/02 07:19:12;;;;;;;3.15;0.73;;;;;;;9.16;37.35;100108.84;4432594;32;20091;-69
2021/12/02 07:21:40;;;;;;;3.53;0.50;;;;;;;9.40;37.18;100124.19;4434782;32;20045;-69
2021/12/02 07:24:09;;;;;;;2.87;0.50;;;;;;;9.44;37.11;100122.06;4436709;32;20033;-69
2021/12/02 07:26:40;;;;;;;7.20;0.85;;;;;;;9.45;37.30;100132.06;4437401;32;20120;-69
2021/12/02 07:29:06;;;;;;;4.85;0.68;;;;;;;9.74;36.77;100143.25;4430145;32;20052;-69
2021/12/02 07:31:33;;;;;;;4.12;0.45;;;;;;;9.25;37.35;100145.50;4433165;32;20307;-69
2021/12/02 07:34:02;;;;;;;5.62;0.40;;;;;;;9.72;36.97;100159.75;4435068;32;20055;-69
2021/12/02 07:36:31;;;;;;;2.00;0.60;;;;;;;9.76;36.98;100154.84;4432440;32;20046;-69
2021/12/02 07:38:57;;;;;;;9.98;1.20;;;;;;;9.38;37.59;100160.34;4417676;32;20100;-69
2021/12/02 07:41:22;;;;;;;5.55;0.50;;;;;;;9.34;37.43;100151.25;4417116;32;20068;-69
2021/12/02 07:43:48;;;;;;;2.40;0.22;;;;;;;9.46;37.20;100161.75;4419123;32;20159;-69
2021/12/02 07:46:14;;;;;;;5.60;0.40;;;;;;;9.55;37.35;100170.28;4414006;32;20455;-69
2021/12/02 07:48:40;;;;;;;6.30;1.10;;;;;;;9.30;37.67;100161.00;4408912;32;20037;-69
2021/12/02 07:51:09;;;;;;;6.22;0.60;;;;;;;9.71;37.34;100169.44;4416693;32;20038;-70
2021/12/02 07:53:39;;;;;;;4.25;0.70;;;;;;;9.88;37.34;100171.69;4419460;32;20160;-70
2021/12/02 07:56:09;;;;;;;5.47;0.40;;;;;;;9.67;37.59;100172.34;4413990;32;20116;-70
2021/12/02 07:58:38;;;;;;;10.32;0.82;;;;;;;9.67;37.62;100182.81;4409829;32;20611;-70
2021/12/02 08:01:04;;;;;;;2.50;0.62;;;;;;;9.18;38.54;100207.41;4414918;32;20046;-70
2021/12/02 08:03:30;;;;;;;2.33;0.70;;;;;;;9.71;37.64;100211.56;4409554;32;20123;-70
2021/12/02 08:05:56;;;;;;;3.70;0.70;;;;;;;9.33;38.26;100228.28;4412927;32;20030;-70
2021/12/02 08:08:22;;;;;;;9.80;0.70;;;;;;;9.59;38.06;100221.53;4406339;32;20100;-70
2021/12/02 08:10:48;;;;;;;3.50;0.50;;;;;;;9.53;37.97;100220.50;4408298;32;20142;-70
2021/12/02 08:13:14;;;;;;;3.12;0.40;;;;;;;9.77;37.69;100232.28;4403654;32;21160;-70
2021/12/02 08:15:42;;;;;;;11.65;0.70;;;;;;;9.65;37.70;100239.44;4402833;32;20089;-70
2021/12/02 08:18:09;;;;;;;4.85;1.65;;;;;;;9.75;37.70;100254.41;4392831;32;20340;-70
2021/12/02 08:20:35;;;;;;;4.50;0.70;;;;;;;9.79;37.67;100264.31;4402101;32;20089;-70
2021/12/02 08:23:02;;;;;;;4.87;0.60;;;;;;;9.56;38.31;100263.75;4399285;32;20062;-70
2021/12/02 08:25:30;;;;;;;1.48;0.50;;;;;;;9.84;37.68;100272.19;4399612;32;20081;-70
2021/12/02 08:27:59;;;;;;;3.00;0.80;;;;;;;10.18;37.33;100282.88;4401156;32;20081;-70
2021/12/02 08:30:27;;;;;;;8.02;0.52;;;;;;;10.12;37.53;100264.97;4400365;32;20492;-70
2021/12/02 08:32:54;;;;;;;2.87;0.62;;;;;;;10.18;37.14;100274.44;4402664;32;20101;-69
2021/12/02 08:35:21;;;;;;;5.62;0.80;;;;;;;10.20;36.89;100274.78;4409216;32;20083;-70
2021/12/02 08:37:50;;;;;;;7.75;1.27;;;;;;;10.41;37.02;100271.34;4402503;32;20345;-70
2021/12/02 08:40:19;;;;;;;7.20;0.80;;;;;;;10.37;37.15;100278.31;4406997;32;20077;-70
2021/12/02 08:42:47;;;;;;;3.92;0.85;;;;;;;10.18;37.75;100274.44;4407149;32;20529;-69
2021/12/02 08:45:13;;;;;;;9.13;2.70;;;;;;;10.44;37.07;100281.69;4407100;32;20847;-69
2021/12/02 08:47:46;;;;;;;7.12;1.00;;;;;;;10.50;36.83;100284.72;4407476;32;20080;-69
2021/12/02 08:50:19;;;;;;;4.72;1.45;;;;;;;10.31;36.85;100294.16;4400655;32;20191;-69
2021/12/02 08:52:46;;;;;;;4.28;0.73;;;;;;;10.69;36.79;100297.78;4409786;32;20067;-68
2021/12/02 08:55:13;;;;;;;9.25;1.00;;;;;;;10.58;37.16;100295.31;4402937;32;20096;-69
2021/12/02 08:57:39;;;;;;;10.75;1.35;;;;;;;10.95;36.48;100296.56;4403644;32;20100;-69
2021/12/02 09:00:08;;;;;;;6.85;1.33;;;;;;;10.65;36.46;100300.69;4408310;32;20498;-69
2021/12/02 09:02:34;;;;;;;6.45;0.80;;;;;;;10.87;36.20;100301.63;4408649;32;20220;-69
2021/12/02 09:05:00;;;;;;;5.00;0.75;;;;;;;10.88;35.97;100302.41;4408561;32;20091;-70
2021/12/02 09:07:27;;;;;;;4.32;0.60;;;;;;;11.25;35.66;100310.81;4407915;32;20041;-70
2021/12/02 09:09:53;;;;;;;4.75;0.60;;;;;;;10.81;36.10;100297.00;4404719;32;20098;-70
2021/12/02 09:12:19;;;;;;;9.07;0.80;;;;;;;10.90;35.98;100292.28;4410644;32;20077;-70
2021/12/02 09:14:45;;;;;;;5.35;0.77;;;;;;;11.05;35.86;100293.38;4403198;32;20054;-70
2021/12/02 09:17:11;;;;;;;9.23;0.70;;;;;;;10.64;36.60;100292.72;4408511;32;20037;-70
2021/12/02 09:19:37;;;;;;;7.90;0.85;;;;;;;10.96;36.11;100289.69;4406626;32;20103;-70
2021/12/02 09:22:03;;;;;;;2.17;0.90;;;;;;;11.07;35.68;100285.25;4407624;32;20411;-70
2021/12/02 09:24:28;;;;;;;5.57;0.90;;;;;;;11.66;35.37;100295.75;4407212;32;20030;-70
2021/12/02 09:26:55;;;;;;;7.70;1.40;;;;;;;11.76;35.15;100295.34;4407448;32;20115;-70
2021/12/02 09:29:23;;;;;;;6.22;0.73;;;;;;;12.08;34.62;100299.81;4404528;32;20056;-70
2021/12/02 09:31:50;;;;;;;10.18;0.95;;;;;;;12.64;33.81;100300.47;4407851;32;20187;-69
2021/12/02 09:34:16;;;;;;;12.45;1.73;;;;;;;12.86;33.31;100309.66;4405099;32;20176;-69
2021/12/02 09:36:43;;;;;;;5.90;0.80;;;;;;;12.74;33.42;100313.41;4404165;32;20075;-69
2021/12/02 09:39:11;;;;;;;7.05;0.95;;;;;;;12.99;32.77;100321.69;4405795;32;20099;-69
2021/12/02 09:41:37;;;;;;;6.25;1.85;;;;;;;13.37;32.23;100326.97;4404328;32;20136;-69
2021/12/02 09:44:04;;;;;;;7.62;1.20;;;;;;;13.83;31.84;100323.75;4408082;32;20088;-69
2021/12/02 09:46:31;;;;;;;9.43;1.20;;;;;;;13.84;31.57;100330.19;4406181;32;20104;-69
2021/12/02 09:49:00;;;;;;;11.05;1.48;;;;;;;13.89;31.27;100332.37;4402500;32;20179;-69
2021/12/02 09:51:31;;;;;;;7.97;1.00;;;;;;;14.39;30.75;100337.41;4401740;32;20532;-69
2021/12/02 09:54:06;;;;;;;22.60;9.88;;;;;;;14.03;30.68;100346.69;4406574;32;20534;-69
2021/12/02 09:56:34;;;;;;;;;;;;;;;14.79;30.21;100340.00;4407681;32;20077;-69
2021/12/02 09:59:08;;;;;;;6.12;1.30;;;;;;;14.61;29.95;100345.72;4403540;32;21040;-67
2021/12/02 10:01:40;;;;;;;8.65;1.92;;;;;;;14.28;30.46;100353.31;4405796;32;20115;-68
2021/12/02 10:04:09;;;;;;;9.63;1.33;;;;;;;14.96;29.86;100361.81;4408985;32;20042;-69
2021/12/02 10:06:35;;;;;;;9.15;1.35;;;;;;;15.05;29.80;100361.00;4408841;32;20045;-69
2021/12/02 10:09:24;;;;;;;10.15;1.70;;;;;;;15.02;29.36;100361.94;4404767;32;20089;-68
2021/12/02 10:11:53;;;;;;;10.25;1.80;;;;;;;14.84;29.45;100362.78;4403404;32;20112;-69
2021/12/02 10:17:14;;;;;;;11.20;1.75;;;;;;;15.79;28.64;100384.41;3962988;32;15188180;-69
2021/12/02 10:23:01;;;;;;;11.82;1.83;;;;;;;15.87;28.67;100385.59;3968222;32;15023455;-70
2021/12/02 10:25:30;;;;;;;12.13;1.83;;;;;;;15.87;28.67;100385.59;4419523;32;20169;-70
2021/12/02 10:28:13;;;;;;;13.52;1.95;;;;;;;15.39;28.79;100394.56;4418905;32;20512;-70
2021/12/02 10:30:42;;;;;;;9.60;1.42;;;;;;;16.13;27.84;100405.78;4415924;32;20057;-70
2021/12/02 10:33:09;;;;;;;6.82;1.60;;;;;;;15.62;27.83;100396.66;4408370;32;20097;-70
2021/12/02 10:35:39;;;;;;;10.55;1.65;;;;;;;15.33;28.22;100390.78;4416346;32;20451;-70
2021/12/02 10:38:05;;;;;;;12.57;2.30;;;;;;;14.81;29.13;100400.56;4419580;32;20103;-70
2021/12/02 10:40:31;;;;;;;9.13;1.60;;;;;;;14.70;29.07;100402.34;4418883;32;20045;-70
2021/12/02 10:43:06;;;;;;;17.00;2.15;;;;;;;14.29;29.35;100403.00;4416806;32;20117;-70
2021/12/02 10:45:31;;;;;;;8.95;1.70;;;;;;;14.76;29.37;100408.94;4418438;32;20030;-70
2021/12/02 10:47:58;;;;;;;8.57;1.67;;;;;;;13.53;30.39;100408.69;4415748;32;20076;-70
2021/12/02 10:50:26;;;;;;;9.10;1.83;;;;;;;13.86;30.45;100415.34;4415947;32;20063;-70
2021/12/02 10:52:52;;;;;;;13.30;2.00;;;;;;;13.06;31.32;100408.97;4414237;32;20204;-70
2021/12/02 10:55:22;;;;;;;12.70;1.92;;;;;;;13.49;31.15;100413.69;4413059;32;20076;-70
2021/12/02 10:57:52;;;;;;;18.45;2.05;;;;;;;13.45;31.17;100416.69;4419849;32;20458;-70
2021/12/02 11:00:20;;;;;;;8.68;1.67;;;;;;;13.77;30.96;100409.66;4418218;32;20448;-70
2021/12/02 11:02:49;;;;;;;12.68;2.05;;;;;;;13.79;30.62;100407.97;4418801;32;21207;-69
2021/12/02 11:05:20;;;;;;;16.70;1.40;;;;;;;13.99;30.36;100413.97;4417412;32;20099;-69
2021/12/02 11:10:34;;;;;;;36.10;2.67;;;;;;;14.46;29.37;100407.88;3962095;32;15023707;-69
2021/12/02 11:13:00;;;;;;;15.95;1.80;;;;;;;15.35;28.65;100413.78;4412854;32;20076;-69
2021/12/02 11:15:29;;;;;;;14.38;2.35;;;;;;;15.28;27.83;100411.31;4407691;32;20081;-69
2021/12/02 11:28:33;;;;;;;15.20;2.33;;;;;;;17.73;24.94;100402.97;3979099;32;15023791;-69
2021/12/02 11:31:09;;;;;;;13.07;1.75;;;;;;;17.73;24.94;100402.97;4431916;32;20153;-69
2021/12/02 11:33:36;;;;;;;9.02;1.80;;;;;;;17.47;25.18;100402.06;4428430;32;20197;-69
2021/12/02 11:36:05;;;;;;;12.18;1.65;;;;;;;17.46;24.81;100398.44;4429772;32;20115;-70
2021/12/02 11:38:32;;;;;;;10.73;1.50;;;;;;;17.47;24.51;100404.91;4432370;32;20076;-69
2021/12/02 11:41:02;;;;;;;19.00;3.12;;;;;;;17.20;24.73;100405.22;4431273;32;20067;-70
2021/12/02 11:43:31;;;;;;;11.23;1.62;;;;;;;17.83;24.40;100396.66;4429670;32;20057;-70
2021/12/02 11:45:58;;;;;;;18.58;2.83;;;;;;;18.18;23.45;100398.66;4428331;32;20073;-70
2021/12/02 11:48:30;;;;;;;10.48;1.92;;;;;;;18.17;23.26;100394.25;4427619;32;20604;-70
2021/12/02 11:50:59;;;;;;;15.90;2.10;;;;;;;18.08;22.96;100400.09;4427683;32;20103;-70
2021/12/02 11:53:25;;;;;;;15.35;1.58;;;;;;;18.80;22.97;100387.47;4432236;32;20077;-70
2021/12/02 11:55:56;;;;;;;14.30;1.55;;;;;;;18.61;22.96;100394.78;4431405;32;20065;-70
2021/12/02 11:58:22;;;;;;;14.75;1.70;;;;;;;18.17;22.81;100388.56;4431629;32;20088;-70
2021/12/02 12:00:48;;;;;;;11.27;1.95;;;;;;;18.67;22.57;100401.31;4429295;32;20568;-70
2021/12/02 12:03:20;;;;;;;13.77;2.10;;;;;;;18.37;22.48;100388.53;4429862;32;20116;-70
2021/12/02 12:08:31;;;;;;;11.43;1.80;;;;;;;18.49;22.56;100408.12;3972983;32;15030875;-70
2021/12/02 12:10:58;;;;;;;12.90;2.05;;;;;;;17.67;23.49;100399.25;4415399;32;20073;-70
2021/12/02 12:13:24;;;;;;;5.97;1.50;;;;;;;18.22;22.86;100402.84;4417274;32;20101;-69
2021/12/02 12:15:52;;;;;;;17.62;1.77;;;;;;;17.81;23.00;100395.59;4416129;32;20077;-68
2021/12/02 12:18:34;;;;;;;11.20;1.73;;;;;;;17.39;23.39;100389.50;4413887;32;20333;-68
2021/12/02 12:23:43;;;;;;;17.02;2.03;;;;;;;17.97;22.84;100388.56;3966006;31;15708836;-68